Time;durP1;ratioP1;P1;durP2;ratioP2;P2;SDS_P1;SDS_P2;PMS_P1;PMS_P2;Temp;Humidity;BMP_temperature;BMP_pressure;BME280_temperature;BME280_humidity;BME280_pressure;Samples;Min_cycle;Max_cycle;Signal;HPM_P1;HPM_P2
2022/03/31 00:00:47;;;;;;;5.53;2.40;;;;;;;;;;5112352;28;20161;-67
2022/03/31 00:03:16;;;;;;;6.07;2.60;;;;;;;;;;5112104;28;20048;-68
2022/03/31 00:05:41;;;;;;;7.20;2.65;;;;;;;;;;5112379;28;20148;-68
2022/03/31 00:08:15;;;;;;;5.85;2.45;;;;;;;;;;5112306;28;20098;-71
2022/03/31 00:10:52;;;;;;;6.18;2.60;;;;;;;;;;5112362;28;20027;-73
2022/03/31 00:13:23;;;;;;;5.55;2.63;;;;;;;;;;5112025;28;20035;-67
2022/03/31 00:15:48;;;;;;;6.03;2.50;;;;;;;;;;5111900;28;20380;-70
2022/03/31 00:18:15;;;;;;;5.70;2.47;;;;;;;;;;5112436;28;20332;-73
2022/03/31 00:20:41;;;;;;;4.85;2.58;;;;;;;;;;5112025;28;20405;-67
2022/03/31 00:23:07;;;;;;;4.80;2.25;;;;;;;;;;5111923;28;20481;-68
2022/03/31 00:25:32;;;;;;;7.72;2.58;;;;;;;;;;5111831;28;20024;-67
2022/03/31 00:27:58;;;;;;;5.10;2.50;;;;;;;;;;5111939;27;20016;-66
2022/03/31 00:30:24;;;;;;;5.30;2.50;;;;;;;;;;5111788;28;20023;-68
2022/03/31 00:32:50;;;;;;;8.85;2.53;;;;;;;;;;5111909;28;20059;-71
2022/03/31 00:35:16;;;;;;;7.25;2.60;;;;;;;;;;5111549;28;20055;-72
2022/03/31 00:37:43;;;;;;;6.32;2.83;;;;;;;;;;5111580;28;20072;-67
2022/03/31 00:40:12;;;;;;;6.22;2.42;;;;;;;;;;5111754;28;20054;-70
2022/03/31 00:42:45;;;;;;;4.07;2.50;;;;;;;;;;5111610;28;20574;-73
2022/03/31 00:45:15;;;;;;;5.80;2.85;;;;;;;;;;5111467;28;20466;-67
2022/03/31 00:47:41;;;;;;;4.00;2.20;;;;;;;;;;5111575;28;20050;-72
2022/03/31 00:50:08;;;;;;;4.25;2.20;;;;;;;;;;5111465;28;20474;-66
2022/03/31 00:52:33;;;;;;;7.65;2.17;;;;;;;;;;5111180;28;20435;-73
2022/03/31 00:54:59;;;;;;;5.22;2.05;;;;;;;;;;5111252;28;20023;-72
2022/03/31 00:57:25;;;;;;;4.80;2.40;;;;;;;;;;5111362;28;20019;-68
2022/03/31 00:59:51;;;;;;;3.78;2.10;;;;;;;;;;5111550;28;20110;-65
2022/03/31 01:02:16;;;;;;;5.53;2.47;;;;;;;;;;5111045;28;20047;-67
2022/03/31 01:04:42;;;;;;;7.78;2.33;;;;;;;;;;5111460;28;20367;-69
2022/03/31 01:07:07;;;;;;;5.85;2.20;;;;;;;;;;5111294;28;20020;-71
2022/03/31 01:09:32;;;;;;;3.53;1.90;;;;;;;;;;5110939;28;20020;-69
2022/03/31 01:12:00;;;;;;;4.57;1.95;;;;;;;;;;5111322;28;20088;-66
2022/03/31 01:14:25;;;;;;;5.30;2.40;;;;;;;;;;5110881;28;20031;-67
2022/03/31 01:16:51;;;;;;;7.28;2.17;;;;;;;;;;5111216;28;20016;-72
2022/03/31 01:19:17;;;;;;;6.18;2.50;;;;;;;;;;5111429;28;20043;-72
2022/03/31 01:21:46;;;;;;;4.72;2.40;;;;;;;;;;5110905;28;20474;-67
2022/03/31 01:24:17;;;;;;;5.18;2.10;;;;;;;;;;5110303;28;20425;-69
2022/03/31 01:26:43;;;;;;;3.92;1.90;;;;;;;;;;5110645;28;20089;-68
2022/03/31 01:29:09;;;;;;;6.93;2.28;;;;;;;;;;5110760;28;20015;-67
2022/03/31 01:31:37;;;;;;;4.05;2.30;;;;;;;;;;5110773;28;20020;-67
2022/03/31 01:34:04;;;;;;;6.07;1.90;;;;;;;;;;5110781;28;20064;-70
2022/03/31 01:36:29;;;;;;;4.97;2.28;;;;;;;;;;5110492;28;20102;-69
2022/03/31 01:38:55;;;;;;;3.83;2.17;;;;;;;;;;5110343;28;20099;-66
2022/03/31 01:41:21;;;;;;;7.68;2.20;;;;;;;;;;5110428;28;20028;-67
2022/03/31 01:43:47;;;;;;;5.85;1.90;;;;;;;;;;5109065;28;20050;-71
2022/03/31 01:46:13;;;;;;;4.97;2.20;;;;;;;;;;5110353;28;20479;-68
2022/03/31 01:48:38;;;;;;;4.43;2.20;;;;;;;;;;5110604;28;20505;-71
2022/03/31 01:51:04;;;;;;;4.15;1.80;;;;;;;;;;5110521;28;20019;-74
2022/03/31 01:53:31;;;;;;;5.90;2.40;;;;;;;;;;5110054;28;20119;-67
2022/03/31 01:55:56;;;;;;;4.20;2.40;;;;;;;;;;5110146;28;20016;-66
2022/03/31 01:58:22;;;;;;;4.38;1.80;;;;;;;;;;5110276;28;20019;-67
2022/03/31 02:00:48;;;;;;;5.50;2.15;;;;;;;;;;5110256;28;20062;-74
2022/03/31 02:03:13;;;;;;;3.30;1.98;;;;;;;;;;5110093;28;20046;-71
2022/03/31 02:05:39;;;;;;;4.70;2.20;;;;;;;;;;5110217;28;20035;-67
2022/03/31 02:08:04;;;;;;;5.38;1.98;;;;;;;;;;5109976;28;20026;-68
2022/03/31 02:10:30;;;;;;;5.38;2.30;;;;;;;;;;5110259;28;20107;-71
2022/03/31 02:12:55;;;;;;;3.67;2.30;;;;;;;;;;5110216;28;20028;-71
2022/03/31 02:15:22;;;;;;;6.50;2.53;;;;;;;;;;5109848;28;20032;-72
2022/03/31 02:17:48;;;;;;;4.88;2.05;;;;;;;;;;5110113;28;20395;-67
2022/03/31 02:20:14;;;;;;;5.68;2.50;;;;;;;;;;5110276;28;20127;-68
2022/03/31 02:22:40;;;;;;;4.85;2.35;;;;;;;;;;5110090;28;20546;-74
2022/03/31 02:25:08;;;;;;;7.13;2.83;;;;;;;;;;5110062;28;20035;-70
2022/03/31 02:27:35;;;;;;;5.30;2.50;;;;;;;;;;5110255;28;20023;-68
2022/03/31 02:30:01;;;;;;;4.97;2.67;;;;;;;;;;5110285;28;20019;-76
2022/03/31 02:32:27;;;;;;;9.20;2.78;;;;;;;;;;5110125;28;20016;-67
2022/03/31 02:34:53;;;;;;;8.35;3.17;;;;;;;;;;5111564;28;20387;-67
2022/03/31 02:37:19;;;;;;;5.25;2.70;;;;;;;;;;5114112;27;20019;-67
2022/03/31 02:39:44;;;;;;;4.75;2.47;;;;;;;;;;5114044;28;20027;-67
2022/03/31 02:42:09;;;;;;;6.88;2.60;;;;;;;;;;5114094;28;20566;-74
2022/03/31 02:44:35;;;;;;;4.68;2.40;;;;;;;;;;5114138;28;20031;-73
2022/03/31 02:47:00;;;;;;;3.90;2.72;;;;;;;;;;5114035;28;20526;-67
2022/03/31 02:49:26;;;;;;;6.15;2.50;;;;;;;;;;5113908;28;20019;-66
2022/03/31 02:51:51;;;;;;;6.75;2.42;;;;;;;;;;5113576;28;20039;-67
2022/03/31 02:57:01;;;;;;;5.78;2.50;;;;;;;;;;5113709;28;20177;-67
2022/03/31 02:59:26;;;;;;;4.72;2.47;;;;;;;;;;5113962;28;20103;-70
2022/03/31 03:01:52;;;;;;;4.97;2.55;;;;;;;;;;5113509;28;20072;-68
2022/03/31 03:04:17;;;;;;;7.85;2.58;;;;;;;;;;5114041;28;20309;-74
2022/03/31 03:06:42;;;;;;;7.88;2.92;;;;;;;;;;5113322;28;20020;-70
2022/03/31 03:09:08;;;;;;;5.00;2.63;;;;;;;;;;5113444;28;20023;-67
2022/03/31 03:11:34;;;;;;;5.13;2.67;;;;;;;;;;5113477;28;20032;-70
2022/03/31 03:13:59;;;;;;;6.18;2.53;;;;;;;;;;5113357;28;20034;-67
2022/03/31 03:16:25;;;;;;;3.97;2.92;;;;;;;;;;5113321;28;20019;-69
2022/03/31 03:18:54;;;;;;;4.93;2.58;;;;;;;;;;5113406;28;20042;-67
2022/03/31 03:21:20;;;;;;;4.32;2.53;;;;;;;;;;5113336;28;20371;-70
2022/03/31 03:23:48;;;;;;;7.35;2.63;;;;;;;;;;5113114;28;20027;-71
2022/03/31 03:26:14;;;;;;;5.40;2.70;;;;;;;;;;5113194;28;20110;-67
2022/03/31 03:28:39;;;;;;;4.75;2.65;;;;;;;;;;5113112;28;20501;-74
2022/03/31 03:31:06;;;;;;;5.80;2.90;;;;;;;;;;5113156;28;20020;-73
2022/03/31 03:33:32;;;;;;;4.45;2.40;;;;;;;;;;5113013;27;20498;-74
2022/03/31 03:35:59;;;;;;;7.60;2.90;;;;;;;;;;5113004;28;20057;-67
2022/03/31 03:38:25;;;;;;;6.00;2.70;;;;;;;;;;5112748;28;20096;-70
2022/03/31 03:40:51;;;;;;;5.30;2.88;;;;;;;;;;5112912;28;20430;-73
2022/03/31 03:43:16;;;;;;;6.85;2.65;;;;;;;;;;5112941;28;20035;-72
2022/03/31 03:45:42;;;;;;;5.93;2.78;;;;;;;;;;5112331;28;20034;-72
2022/03/31 03:48:10;;;;;;;4.88;2.53;;;;;;;;;;5113234;28;20028;-68
2022/03/31 03:50:36;;;;;;;4.45;2.40;;;;;;;;;;5112706;28;20390;-72
2022/03/31 03:53:03;;;;;;;7.05;3.40;;;;;;;;;;5112698;28;20475;-75
2022/03/31 03:55:32;;;;;;;5.38;2.75;;;;;;;;;;5112545;28;20028;-71
2022/03/31 03:57:59;;;;;;;8.07;3.00;;;;;;;;;;5112984;28;20517;-72
2022/03/31 04:00:25;;;;;;;4.70;2.70;;;;;;;;;;5112472;28;20030;-72
2022/03/31 04:02:51;;;;;;;6.38;2.67;;;;;;;;;;5112162;28;20043;-70
2022/03/31 04:05:17;;;;;;;4.45;2.38;;;;;;;;;;5112208;28;20031;-69
2022/03/31 04:07:43;;;;;;;7.05;2.83;;;;;;;;;;5112541;27;20023;-73
2022/03/31 04:10:10;;;;;;;4.40;2.65;;;;;;;;;;5112683;28;20578;-69
2022/03/31 04:12:38;;;;;;;4.97;2.63;;;;;;;;;;5115668;28;20057;-67
2022/03/31 04:15:04;;;;;;;5.05;3.00;;;;;;;;;;5113069;28;20050;-69
2022/03/31 04:17:30;;;;;;;6.25;3.03;;;;;;;;;;5111881;28;20383;-72
2022/03/31 04:19:56;;;;;;;5.53;3.00;;;;;;;;;;5112121;28;20486;-68
2022/03/31 04:22:21;;;;;;;7.15;2.80;;;;;;;;;;5112355;28;20027;-67
2022/03/31 04:24:47;;;;;;;8.00;2.67;;;;;;;;;;5112057;28;20102;-70
2022/03/31 04:27:13;;;;;;;5.13;2.70;;;;;;;;;;5112002;28;20032;-70
2022/03/31 04:29:39;;;;;;;4.20;3.00;;;;;;;;;;5111889;28;20170;-69
2022/03/31 04:32:05;;;;;;;5.35;2.78;;;;;;;;;;5111990;28;20166;-67
2022/03/31 04:34:30;;;;;;;7.22;2.95;;;;;;;;;;5111743;27;20072;-69
2022/03/31 04:36:56;;;;;;;4.30;2.40;;;;;;;;;;5111503;28;20019;-72
2022/03/31 04:39:21;;;;;;;4.97;2.63;;;;;;;;;;5111681;28;20386;-71
2022/03/31 04:41:47;;;;;;;3.92;2.55;;;;;;;;;;5111850;28;20020;-74
2022/03/31 04:44:12;;;;;;;4.20;2.55;;;;;;;;;;5111662;28;20382;-68
2022/03/31 04:46:38;;;;;;;6.68;2.88;;;;;;;;;;5111481;28;20031;-67
2022/03/31 04:49:05;;;;;;;3.78;2.40;;;;;;;;;;5111537;28;20024;-69
2022/03/31 04:51:31;;;;;;;5.15;2.83;;;;;;;;;;5111345;27;20023;-70
2022/03/31 04:53:56;;;;;;;4.75;2.55;;;;;;;;;;5111321;28;20471;-67
2022/03/31 04:56:22;;;;;;;4.60;2.33;;;;;;;;;;5111368;28;20058;-68
2022/03/31 04:58:48;;;;;;;5.43;2.33;;;;;;;;;;5111354;28;20462;-68
2022/03/31 05:01:16;;;;;;;5.70;2.30;;;;;;;;;;5111418;28;20052;-73
2022/03/31 05:03:42;;;;;;;4.32;2.40;;;;;;;;;;5111146;28;20070;-71
2022/03/31 05:06:07;;;;;;;4.55;2.30;;;;;;;;;;5111147;28;20498;-69
2022/03/31 05:08:33;;;;;;;6.45;2.72;;;;;;;;;;5110996;28;20024;-69
2022/03/31 05:10:59;;;;;;;3.47;2.20;;;;;;;;;;5111127;28;20555;-68
2022/03/31 05:13:24;;;;;;;4.82;2.10;;;;;;;;;;5111013;28;20118;-67
2022/03/31 05:15:50;;;;;;;3.50;2.10;;;;;;;;;;5111006;28;20027;-68
2022/03/31 05:18:16;;;;;;;3.30;2.20;;;;;;;;;;5111310;28;20084;-73
2022/03/31 05:20:43;;;;;;;4.80;2.25;;;;;;;;;;5110940;28;20403;-66
2022/03/31 05:23:11;;;;;;;4.32;2.20;;;;;;;;;;5110778;28;20023;-72
2022/03/31 05:25:37;;;;;;;3.47;2.20;;;;;;;;;;5110508;28;20059;-66
2022/03/31 05:28:03;;;;;;;3.97;2.13;;;;;;;;;;5110766;28;20031;-66
2022/03/31 05:30:29;;;;;;;3.22;1.83;;;;;;;;;;5110998;28;20485;-69
2022/03/31 05:32:54;;;;;;;4.78;1.98;;;;;;;;;;5111135;28;20034;-68
2022/03/31 05:35:21;;;;;;;4.05;2.15;;;;;;;;;;5111049;28;20051;-66
2022/03/31 05:37:47;;;;;;;3.33;2.10;;;;;;;;;;5110421;28;20342;-72
2022/03/31 05:40:14;;;;;;;5.22;2.47;;;;;;;;;;5110667;28;20070;-74
2022/03/31 05:42:40;;;;;;;3.72;2.25;;;;;;;;;;5110518;28;20368;-72
2022/03/31 05:45:07;;;;;;;6.20;2.40;;;;;;;;;;5110699;28;20106;-72
2022/03/31 05:47:33;;;;;;;5.07;2.22;;;;;;;;;;5110400;28;20075;-75
2022/03/31 05:49:59;;;;;;;4.03;2.08;;;;;;;;;;5110804;28;20098;-73
2022/03/31 05:52:24;;;;;;;3.28;2.08;;;;;;;;;;5110634;28;20034;-70
2022/03/31 05:54:50;;;;;;;3.67;2.08;;;;;;;;;;5110405;28;20024;-71
2022/03/31 05:57:16;;;;;;;4.20;2.00;;;;;;;;;;5110323;28;20020;-74
2022/03/31 05:59:42;;;;;;;5.78;2.10;;;;;;;;;;5109259;28;20422;-74
2022/03/31 06:02:08;;;;;;;2.55;1.80;;;;;;;;;;5110189;28;20047;-69
2022/03/31 06:04:34;;;;;;;5.70;2.20;;;;;;;;;;5110304;28;20505;-74
2022/03/31 06:07:00;;;;;;;4.25;2.20;;;;;;;;;;5110260;28;20031;-75
2022/03/31 06:09:25;;;;;;;2.85;1.73;;;;;;;;;;5112916;28;20031;-75
2022/03/31 06:11:50;;;;;;;4.13;2.30;;;;;;;;;;5114511;28;20110;-76
2022/03/31 06:14:16;;;;;;;3.88;2.42;;;;;;;;;;5114829;28;20026;-74
2022/03/31 06:16:41;;;;;;;6.88;2.15;;;;;;;;;;5114376;28;20031;-71
2022/03/31 06:19:10;;;;;;;5.40;2.60;;;;;;;;;;5114331;28;20393;-71
2022/03/31 06:21:36;;;;;;;5.63;2.97;;;;;;;;;;5114492;28;20567;-76
2022/03/31 06:24:03;;;;;;;6.80;2.90;;;;;;;;;;5114146;28;20024;-72
2022/03/31 06:26:30;;;;;;;5.60;2.63;;;;;;;;;;5114183;28;20070;-74
2022/03/31 06:28:55;;;;;;;4.55;2.33;;;;;;;;;;5114317;28;20027;-74
2022/03/31 06:31:22;;;;;;;3.75;2.22;;;;;;;;;;5114149;28;20110;-74
2022/03/31 06:33:48;;;;;;;4.85;2.10;;;;;;;;;;5114016;27;20058;-75
2022/03/31 06:36:13;;;;;;;5.32;2.33;;;;;;;;;;5112411;28;20542;-73
2022/03/31 06:38:39;;;;;;;5.95;2.30;;;;;;;;;;5114050;28;20272;-73
2022/03/31 06:41:07;;;;;;;4.72;2.00;;;;;;;;;;5113971;28;20036;-75
2022/03/31 06:43:34;;;;;;;3.15;1.90;;;;;;;;;;5114502;28;20262;-68
2022/03/31 06:46:00;;;;;;;4.47;1.92;;;;;;;;;;5114500;28;20024;-73
2022/03/31 06:48:27;;;;;;;3.13;2.10;;;;;;;;;;5113914;28;20069;-74
2022/03/31 06:50:53;;;;;;;4.10;1.88;;;;;;;;;;5114120;28;20044;-69
2022/03/31 06:53:18;;;;;;;3.78;2.03;;;;;;;;;;5113678;28;20063;-73
2022/03/31 06:55:45;;;;;;;5.30;2.25;;;;;;;;;;5114353;28;20523;-74
2022/03/31 06:58:10;;;;;;;4.90;2.20;;;;;;;;;;5113723;28;20027;-75
2022/03/31 07:00:36;;;;;;;3.80;2.13;;;;;;;;;;5114345;28;20024;-75
2022/03/31 07:03:01;;;;;;;4.00;2.10;;;;;;;;;;5114470;28;20495;-74
2022/03/31 07:08:49;;;;;;;3.80;1.83;;;;;;;;;;5113567;28;20045;-72
2022/03/31 07:11:14;;;;;;;5.88;2.22;;;;;;;;;;5113412;28;20106;-71
2022/03/31 07:13:40;;;;;;;4.15;2.22;;;;;;;;;;5113757;28;20512;-73
2022/03/31 07:16:06;;;;;;;7.75;2.22;;;;;;;;;;5113416;28;20056;-66
2022/03/31 07:18:32;;;;;;;5.28;2.60;;;;;;;;;;5113062;28;20391;-73
2022/03/31 07:20:57;;;;;;;5.75;2.58;;;;;;;;;;5112828;28;20026;-71
2022/03/31 07:23:26;;;;;;;4.63;2.58;;;;;;;;;;5113154;28;20028;-68
2022/03/31 07:25:56;;;;;;;6.32;2.55;;;;;;;;;;5111838;28;20035;-69
2022/03/31 07:28:22;;;;;;;8.68;3.00;;;;;;;;;;5113089;28;20033;-70
2022/03/31 07:30:49;;;;;;;9.70;3.40;;;;;;;;;;5113114;28;20503;-72
2022/03/31 07:33:14;;;;;;;6.47;3.33;;;;;;;;;;5113093;28;20032;-72
2022/03/31 07:35:42;;;;;;;5.80;2.72;;;;;;;;;;5113327;28;20135;-67
2022/03/31 07:38:08;;;;;;;11.07;2.95;;;;;;;;;;5112731;28;20542;-69
2022/03/31 07:40:36;;;;;;;6.40;2.80;;;;;;;;;;5112859;28;20020;-69
2022/03/31 07:43:04;;;;;;;12.40;3.05;;;;;;;;;;5112688;27;20019;-69
2022/03/31 07:45:30;;;;;;;20.13;3.75;;;;;;;;;;5112631;28;20020;-72
2022/03/31 07:47:56;;;;;;;7.15;2.90;;;;;;;;;;5112595;27;20023;-62
2022/03/31 07:50:22;;;;;;;13.77;3.10;;;;;;;;;;5112643;28;20068;-71
2022/03/31 07:52:48;;;;;;;18.50;3.15;;;;;;;;;;5112677;28;20387;-70
2022/03/31 07:55:16;;;;;;;5.10;2.30;;;;;;;;;;5112655;28;20031;-67
2022/03/31 07:57:42;;;;;;;9.00;2.78;;;;;;;;;;5112426;28;20103;-71
2022/03/31 08:00:11;;;;;;;6.35;2.38;;;;;;;;;;5112387;28;20028;-74
2022/03/31 08:02:39;;;;;;;4.43;2.25;;;;;;;;;;5112380;28;20067;-67
2022/03/31 08:05:05;;;;;;;5.75;2.33;;;;;;;;;;5112304;28;20023;-69
2022/03/31 08:07:30;;;;;;;6.65;2.65;;;;;;;;;;5112154;28;20046;-73
2022/03/31 08:09:56;;;;;;;12.48;2.53;;;;;;;;;;5112590;28;20023;-75
2022/03/31 08:12:21;;;;;;;13.98;3.10;;;;;;;;;;5112226;28;20341;-74
2022/03/31 08:14:47;;;;;;;7.45;2.55;;;;;;;;;;5112200;28;20100;-67
2022/03/31 08:17:12;;;;;;;5.03;2.40;;;;;;;;;;5111943;27;20077;-73
2022/03/31 08:19:39;;;;;;;7.63;2.78;;;;;;;;;;5112279;28;20023;-67
2022/03/31 08:22:04;;;;;;;7.03;2.50;;;;;;;;;;5112111;28;20034;-66
2022/03/31 08:24:30;;;;;;;3.70;2.10;;;;;;;;;;5111896;28;20457;-67
2022/03/31 08:26:58;;;;;;;4.18;2.00;;;;;;;;;;5112004;28;20035;-71
2022/03/31 08:29:25;;;;;;;23.92;3.58;;;;;;;;;;5111882;28;20027;-69
2022/03/31 08:31:52;;;;;;;8.98;2.45;;;;;;;;;;5110765;27;20023;-74
2022/03/31 08:34:17;;;;;;;5.40;2.47;;;;;;;;;;5111982;28;20030;-75
2022/03/31 08:36:43;;;;;;;7.68;2.60;;;;;;;;;;5111884;28;20036;-70
2022/03/31 08:39:09;;;;;;;4.93;2.28;;;;;;;;;;5111445;28;20078;-74
2022/03/31 08:41:34;;;;;;;10.07;2.90;;;;;;;;;;5112211;28;20019;-66
2022/03/31 08:44:00;;;;;;;9.93;3.00;;;;;;;;;;5111919;28;20451;-65
2022/03/31 08:46:32;;;;;;;7.30;2.60;;;;;;;;;;5111549;28;20027;-75
2022/03/31 08:48:58;;;;;;;8.15;2.70;;;;;;;;;;5111322;28;20081;-69
2022/03/31 08:51:24;;;;;;;6.93;2.70;;;;;;;;;;5111310;28;20433;-65
2022/03/31 08:53:50;;;;;;;7.75;2.78;;;;;;;;;;5111347;28;20028;-65
2022/03/31 08:56:16;;;;;;;6.95;2.80;;;;;;;;;;5111218;28;20032;-71
2022/03/31 08:58:46;;;;;;;7.43;2.55;;;;;;;;;;5111103;28;20056;-71
2022/03/31 09:01:15;;;;;;;8.77;2.70;;;;;;;;;;5111370;28;20419;-67
2022/03/31 09:03:41;;;;;;;8.60;2.85;;;;;;;;;;5110817;28;20048;-67
2022/03/31 09:06:10;;;;;;;7.47;2.60;;;;;;;;;;5111051;28;20019;-67
2022/03/31 09:08:36;;;;;;;6.22;2.67;;;;;;;;;;5110561;28;20072;-72
2022/03/31 09:11:03;;;;;;;6.75;2.55;;;;;;;;;;5111038;28;20099;-73
2022/03/31 09:13:37;;;;;;;9.98;2.40;;;;;;;;;;5110894;28;20034;-69
2022/03/31 09:16:11;;;;;;;6.90;2.30;;;;;;;;;;5111110;28;20162;-72
2022/03/31 09:18:39;;;;;;;8.82;2.50;;;;;;;;;;5110838;28;20015;-71
2022/03/31 09:21:06;;;;;;;7.45;2.42;;;;;;;;;;5111008;28;20403;-68
2022/03/31 09:23:41;;;;;;;6.53;2.55;;;;;;;;;;5110697;28;20422;-71
2022/03/31 09:26:12;;;;;;;7.13;2.45;;;;;;;;;;5110612;28;20051;-70
2022/03/31 09:28:38;;;;;;;5.72;2.85;;;;;;;;;;5110682;28;20084;-67
2022/03/31 09:31:08;;;;;;;9.10;2.60;;;;;;;;;;5111223;28;20031;-66
2022/03/31 09:33:44;;;;;;;6.85;2.38;;;;;;;;;;5110663;28;20510;-70
2022/03/31 09:36:18;;;;;;;10.88;2.60;;;;;;;;;;5110811;27;20031;-69
2022/03/31 09:38:55;;;;;;;11.32;3.13;;;;;;;;;;5110290;28;20023;-67
2022/03/31 09:41:35;;;;;;;10.05;2.65;;;;;;;;;;5110624;28;20248;-73
2022/03/31 09:44:06;;;;;;;11.60;3.07;;;;;;;;;;5110694;28;20110;-70
2022/03/31 09:46:35;;;;;;;9.98;3.10;;;;;;;;;;5110718;28;20040;-73
2022/03/31 09:49:14;;;;;;;7.07;3.20;;;;;;;;;;5110550;28;20016;-71
2022/03/31 09:51:45;;;;;;;10.55;2.97;;;;;;;;;;5110781;28;20080;-73
2022/03/31 09:54:11;;;;;;;7.82;2.95;;;;;;;;;;5110393;28;20391;-71
2022/03/31 09:56:39;;;;;;;8.48;3.00;;;;;;;;;;5110386;28;20035;-73
2022/03/31 09:59:08;;;;;;;10.18;2.75;;;;;;;;;;5110164;28;20045;-74
2022/03/31 10:01:34;;;;;;;11.65;3.58;;;;;;;;;;5110332;28;20032;-67
2022/03/31 10:04:02;;;;;;;9.85;2.78;;;;;;;;;;5109928;28;20059;-67
2022/03/31 10:06:27;;;;;;;10.70;2.90;;;;;;;;;;5110484;28;20525;-68
2022/03/31 10:08:56;;;;;;;4.20;2.53;;;;;;;;;;5110127;28;20062;-73
2022/03/31 10:11:23;;;;;;;8.32;2.58;;;;;;;;;;5110421;28;20499;-70
2022/03/31 10:14:17;;;;;;;4.80;2.40;;;;;;;;;;5110244;28;20246;-73
2022/03/31 10:16:50;;;;;;;5.03;2.65;;;;;;;;;;5110275;28;20487;-67
2022/03/31 10:19:29;;;;;;;5.80;2.53;;;;;;;;;;5110072;28;20077;-67
2022/03/31 10:25:03;;;;;;;10.75;2.63;;;;;;;;;;5110507;28;20038;-69
2022/03/31 10:27:31;;;;;;;7.40;2.95;;;;;;;;;;5110122;28;20038;-69
2022/03/31 10:30:11;;;;;;;8.88;2.50;;;;;;;;;;5110097;28;20020;-73
2022/03/31 10:32:37;;;;;;;8.53;3.10;;;;;;;;;;5110057;28;20028;-69
2022/03/31 10:35:03;;;;;;;6.47;2.55;;;;;;;;;;5109958;28;20019;-67
2022/03/31 10:37:36;;;;;;;6.35;2.67;;;;;;;;;;5109746;28;20470;-73
2022/03/31 10:40:08;;;;;;;5.43;2.20;;;;;;;;;;5109931;28;20035;-70
2022/03/31 10:42:34;;;;;;;7.32;2.58;;;;;;;;;;5109961;28;20031;-67
2022/03/31 10:45:14;;;;;;;7.05;2.20;;;;;;;;;;5110210;28;20020;-67
2022/03/31 10:47:42;;;;;;;6.22;2.65;;;;;;;;;;5109850;28;20076;-67
2022/03/31 10:50:23;;;;;;;7.10;2.63;;;;;;;;;;5109759;28;20023;-66
2022/03/31 10:53:02;;;;;;;5.85;2.20;;;;;;;;;;5109975;28;20034;-68
2022/03/31 10:55:50;;;;;;;5.93;2.20;;;;;;;;;;5110671;28;20640;-68
2022/03/31 10:58:28;;;;;;;8.95;2.40;;;;;;;;;;5113505;27;20040;-72
2022/03/31 11:00:55;;;;;;;7.28;2.22;;;;;;;;;;5113847;28;20081;-70
2022/03/31 11:03:21;;;;;;;10.80;2.42;;;;;;;;;;5113204;28;20333;-70
2022/03/31 11:05:48;;;;;;;6.13;2.40;;;;;;;;;;5113669;28;20032;-73
2022/03/31 11:08:17;;;;;;;8.07;2.30;;;;;;;;;;5113348;28;20111;-67
2022/03/31 11:10:54;;;;;;;6.50;2.53;;;;;;;;;;5113706;28;20054;-67
2022/03/31 11:13:30;;;;;;;6.75;2.70;;;;;;;;;;5113295;28;20058;-70
2022/03/31 11:15:56;;;;;;;7.47;2.60;;;;;;;;;;5113283;27;20053;-69
2022/03/31 11:18:22;;;;;;;9.30;2.58;;;;;;;;;;5113197;28;20032;-69
2022/03/31 11:20:54;;;;;;;5.68;2.50;;;;;;;;;;5113074;28;20391;-67
2022/03/31 11:23:20;;;;;;;7.47;2.58;;;;;;;;;;5112759;27;20055;-72
2022/03/31 11:25:46;;;;;;;10.63;2.60;;;;;;;;;;5113017;28;20513;-74
2022/03/31 11:28:12;;;;;;;8.73;2.60;;;;;;;;;;5112672;27;20038;-70
2022/03/31 11:30:38;;;;;;;8.10;2.38;;;;;;;;;;5113078;28;20360;-71
2022/03/31 11:33:05;;;;;;;9.52;2.95;;;;;;;;;;5113087;28;20035;-71
2022/03/31 11:35:31;;;;;;;4.65;2.15;;;;;;;;;;5113110;28;20035;-67
2022/03/31 11:38:03;;;;;;;7.35;2.60;;;;;;;;;;5112883;28;20028;-70
2022/03/31 11:40:29;;;;;;;8.07;3.53;;;;;;;;;;5112689;28;20089;-70
2022/03/31 11:42:57;;;;;;;8.15;3.53;;;;;;;;;;5112712;28;20039;-70
2022/03/31 11:45:22;;;;;;;10.20;4.00;;;;;;;;;;5112785;28;20115;-66
2022/03/31 11:48:09;;;;;;;14.50;4.07;;;;;;;;;;5112808;28;20158;-70
2022/03/31 11:50:47;;;;;;;11.75;3.90;;;;;;;;;;5112721;28;20028;-67
2022/03/31 11:53:17;;;;;;;9.77;3.55;;;;;;;;;;5112465;28;20039;-70
2022/03/31 11:55:42;;;;;;;12.82;4.20;;;;;;;;;;5112927;28;20054;-70
2022/03/31 11:58:08;;;;;;;9.65;4.20;;;;;;;;;;5112351;28;20062;-72
2022/03/31 12:00:34;;;;;;;10.10;3.78;;;;;;;;;;5111127;28;20027;-73
2022/03/31 12:03:05;;;;;;;13.05;4.10;;;;;;;;;;5112267;28;20510;-70
2022/03/31 12:05:31;;;;;;;10.13;3.85;;;;;;;;;;5112512;28;20015;-68
2022/03/31 12:07:59;;;;;;;10.07;4.22;;;;;;;;;;5112644;27;20018;-67
2022/03/31 12:10:25;;;;;;;11.77;4.18;;;;;;;;;;5112332;28;20032;-69
2022/03/31 12:12:53;;;;;;;14.30;4.57;;;;;;;;;;5112476;28;20056;-68
2022/03/31 12:15:28;;;;;;;13.45;4.80;;;;;;;;;;5112526;28;20479;-70
2022/03/31 12:18:08;;;;;;;21.17;4.50;;;;;;;;;;5112459;28;20088;-70
2022/03/31 12:20:39;;;;;;;14.80;4.20;;;;;;;;;;5112374;28;20024;-72
2022/03/31 12:23:22;;;;;;;14.13;4.03;;;;;;;;;;5111877;28;20028;-70
2022/03/31 12:25:48;;;;;;;12.65;4.28;;;;;;;;;;5112027;28;20020;-73
2022/03/31 12:28:14;;;;;;;13.65;4.88;;;;;;;;;;5111941;27;20023;-72
2022/03/31 12:30:41;;;;;;;10.50;4.22;;;;;;;;;;5111604;28;20023;-70
2022/03/31 12:33:23;;;;;;;14.40;4.68;;;;;;;;;;5111725;28;20388;-70
2022/03/31 12:35:57;;;;;;;18.40;4.70;;;;;;;;;;5111758;28;20524;-68
2022/03/31 12:38:48;;;;;;;15.40;4.68;;;;;;;;;;5111400;28;20051;-72
2022/03/31 12:41:28;;;;;;;15.27;4.32;;;;;;;;;;5111755;28;20483;-70
2022/03/31 12:43:57;;;;;;;;;;;;;;;;;;5112311;28;20035;-70
2022/03/31 12:46:22;;;;;;;14.55;4.70;;;;;;;;;;5111780;28;19918;-70
2022/03/31 12:48:53;;;;;;;19.85;4.45;;;;;;;;;;5111536;28;20103;-67
2022/03/31 12:51:20;;;;;;;11.60;4.43;;;;;;;;;;5111478;28;20604;-69
2022/03/31 12:53:46;;;;;;;13.32;4.63;;;;;;;;;;5111251;28;20034;-70
2022/03/31 12:56:21;;;;;;;11.98;3.97;;;;;;;;;;5111658;28;20031;-71
2022/03/31 12:58:46;;;;;;;14.10;4.32;;;;;;;;;;5111651;28;20023;-68
2022/03/31 13:01:12;;;;;;;14.02;4.20;;;;;;;;;;5111455;28;20023;-71
2022/03/31 13:03:38;;;;;;;16.42;4.70;;;;;;;;;;5111149;28;20066;-69
2022/03/31 13:06:03;;;;;;;18.98;4.40;;;;;;;;;;5111365;28;20158;-72
2022/03/31 13:08:29;;;;;;;18.10;5.03;;;;;;;;;;5110944;28;20459;-72
2022/03/31 13:10:55;;;;;;;12.20;4.82;;;;;;;;;;5111069;28;20064;-70
2022/03/31 13:13:20;;;;;;;16.63;4.68;;;;;;;;;;5110937;28;20020;-66
2022/03/31 13:15:46;;;;;;;11.10;4.30;;;;;;;;;;5111029;28;20019;-71
2022/03/31 13:18:11;;;;;;;12.23;4.50;;;;;;;;;;5110498;28;20015;-67
2022/03/31 13:20:37;;;;;;;9.68;4.32;;;;;;;;;;5109372;28;20120;-70
2022/03/31 13:23:02;;;;;;;17.50;4.95;;;;;;;;;;5109284;28;20035;-71
2022/03/31 13:25:28;;;;;;;12.20;4.15;;;;;;;;;;5110640;28;20495;-68
2022/03/31 13:27:53;;;;;;;13.07;3.97;;;;;;;;;;5110640;28;20019;-71
2022/03/31 13:30:19;;;;;;;12.70;3.60;;;;;;;;;;5110498;28;20019;-73
2022/03/31 13:32:44;;;;;;;13.07;4.07;;;;;;;;;;5110700;28;20020;-70
2022/03/31 13:35:11;;;;;;;15.20;4.35;;;;;;;;;;5110845;28;20254;-71
2022/03/31 13:37:37;;;;;;;17.23;4.32;;;;;;;;;;5110553;28;20479;-70
2022/03/31 13:40:07;;;;;;;12.68;4.00;;;;;;;;;;5110259;28;20073;-73
2022/03/31 13:42:39;;;;;;;14.35;4.20;;;;;;;;;;5110393;28;20422;-72
2022/03/31 13:45:11;;;;;;;17.00;4.53;;;;;;;;;;5110506;28;20055;-69
2022/03/31 13:47:37;;;;;;;13.85;4.07;;;;;;;;;;5110506;28;20102;-67
2022/03/31 13:50:33;;;;;;;14.13;4.28;;;;;;;;;;5110380;28;20193;-68
2022/03/31 13:55:43;;;;;;;15.10;4.13;;;;;;;;;;5110858;28;20080;-73
2022/03/31 14:01:13;;;;;;;10.50;3.90;;;;;;;;;;5101157;28;20509;-68
2022/03/31 14:03:42;;;;;;;14.88;3.75;;;;;;;;;;5110193;28;20059;-72
2022/03/31 14:06:07;;;;;;;13.60;3.67;;;;;;;;;;5110332;28;20103;-71
2022/03/31 14:08:34;;;;;;;16.30;3.80;;;;;;;;;;5110199;28;20115;-70
2022/03/31 14:11:01;;;;;;;12.10;3.50;;;;;;;;;;5110115;28;20027;-73
2022/03/31 14:13:26;;;;;;;12.73;3.53;;;;;;;;;;5110477;28;20028;-67
2022/03/31 14:15:52;;;;;;;11.13;3.95;;;;;;;;;;5110253;28;20047;-72
2022/03/31 14:18:17;;;;;;;14.15;4.13;;;;;;;;;;5110278;28;20057;-73
2022/03/31 14:20:43;;;;;;;14.82;4.28;;;;;;;;;;5110079;28;20102;-72
2022/03/31 14:23:09;;;;;;;17.77;4.03;;;;;;;;;;5110122;28;20596;-73
2022/03/31 14:25:35;;;;;;;12.02;3.67;;;;;;;;;;5110310;28;20370;-71
2022/03/31 14:28:01;;;;;;;14.50;3.40;;;;;;;;;;5110295;28;20032;-72
2022/03/31 14:30:27;;;;;;;10.43;3.35;;;;;;;;;;5112558;28;20051;-67
2022/03/31 14:32:52;;;;;;;14.20;3.33;;;;;;;;;;5114091;28;20394;-73
2022/03/31 14:35:18;;;;;;;13.77;3.53;;;;;;;;;;5114472;28;20030;-70
2022/03/31 14:37:44;;;;;;;12.10;3.00;;;;;;;;;;5114027;28;20112;-72
2022/03/31 14:40:10;;;;;;;13.07;3.33;;;;;;;;;;5114024;28;20058;-68
2022/03/31 14:42:35;;;;;;;14.68;3.88;;;;;;;;;;5114295;28;20032;-69
2022/03/31 14:45:02;;;;;;;13.52;3.25;;;;;;;;;;5114146;28;20527;-67
2022/03/31 14:47:28;;;;;;;10.23;3.28;;;;;;;;;;5114042;28;20028;-69
2022/03/31 14:49:54;;;;;;;12.93;3.67;;;;;;;;;;5113601;28;20056;-72
2022/03/31 14:52:21;;;;;;;11.70;2.95;;;;;;;;;;5113293;28;20085;-67
2022/03/31 14:54:47;;;;;;;13.75;3.03;;;;;;;;;;5113988;28;20038;-70
2022/03/31 14:57:12;;;;;;;10.38;3.28;;;;;;;;;;5113845;28;20024;-70